Time;durP1;ratioP1;P1;durP2;ratioP2;P2;SDS_P1;SDS_P2;PMS_P1;PMS_P2;Temp;Humidity;BMP_temperature;BMP_pressure;BME280_temperature;BME280_humidity;BME280_pressure;Samples;Min_cycle;Max_cycle;Signal;HPM_P1;HPM_P2
2022/07/30 00:02:05;;;;;;;;;6.50;6.50;;;;;23.12;38.83;100977.59;5017176;28;45915;-77
2022/07/30 00:04:33;;;;;;;;;7.50;7.50;;;;;23.07;38.86;100980.69;5018574;28;45531;-75
2022/07/30 00:06:59;;;;;;;;;5.00;5.00;;;;;23.02;39.43;100986.47;5018712;28;45553;-75
2022/07/30 00:09:24;;;;;;;;;6.25;6.25;;;;;22.95;39.30;100982.63;5018311;28;45369;-76
2022/07/30 00:11:50;;;;;;;;;6.25;6.25;;;;;22.94;39.61;100991.66;5018251;28;45336;-76
2022/07/30 00:14:15;;;;;;;;;7.00;7.00;;;;;22.69;39.56;100956.19;5018974;28;45372;-77
2022/07/30 00:16:41;;;;;;;;;5.25;5.25;;;;;22.89;39.42;100986.66;5018606;28;45220;-76
2022/07/30 00:19:06;;;;;;;;;4.00;4.00;;;;;22.85;39.68;100985.22;5018048;28;45291;-77
2022/07/30 00:21:32;;;;;;;;;8.75;8.75;;;;;22.79;39.86;100977.72;5017960;28;45418;-75
2022/07/30 00:23:57;;;;;;;;;5.00;5.00;;;;;22.78;40.04;100984.06;5000132;28;45628;-75
2022/07/30 00:26:22;;;;;;;;;6.00;6.00;;;;;22.75;40.37;100989.69;5018573;28;45505;-76
2022/07/30 00:28:48;;;;;;;;;5.00;5.00;;;;;22.69;40.18;100983.00;5019137;28;45588;-73
2022/07/30 00:31:13;;;;;;;;;6.00;6.00;;;;;22.65;40.65;100980.72;5019271;28;45352;-73
2022/07/30 00:33:38;;;;;;;;;5.25;5.25;;;;;22.59;40.35;100972.22;5018076;28;45364;-72
2022/07/30 00:36:04;;;;;;;;;4.75;4.75;;;;;22.58;40.37;100975.91;5018563;28;45325;-74
2022/07/30 00:38:29;;;;;;;;;6.00;6.00;;;;;22.53;40.65;100970.06;5022274;28;45481;-73
2022/07/30 00:40:54;;;;;;;;;5.00;5.00;;;;;22.54;40.85;100977.13;5022731;28;46661;-72
2022/07/30 00:43:20;;;;;;;;;4.75;4.75;;;;;22.51;40.84;100974.72;5022853;28;45328;-72
2022/07/30 00:45:46;;;;;;;;;7.25;7.25;;;;;22.51;41.00;100973.84;5021966;28;45510;-74
2022/07/30 00:48:13;;;;;;;;;5.25;5.25;;;;;22.51;41.07;100973.84;5017474;28;46199;-75
2022/07/30 00:50:39;;;;;;;;;6.75;6.75;;;;;22.45;41.24;100964.50;5019624;28;45372;-79
2022/07/30 00:53:06;;;;;;;;;7.00;7.00;;;;;22.41;41.56;100963.88;5017552;28;45348;-78
2022/07/30 00:55:32;;;;;;;;;7.50;7.50;;;;;22.41;41.47;100966.56;5017788;28;45332;-77
2022/07/30 00:57:57;;;;;;;;;7.75;7.25;;;;;22.35;41.63;100960.88;5017375;28;46460;-78
2022/07/30 01:00:23;;;;;;;;;8.00;8.00;;;;;22.36;41.74;100965.25;5017452;28;45257;-78
2022/07/30 01:02:49;;;;;;;;;5.50;5.50;;;;;22.31;41.95;100958.47;5017495;28;45364;-72
2022/07/30 01:05:14;;;;;;;;;12.00;9.00;;;;;22.27;42.15;100959.69;5017734;28;45319;-77
2022/07/30 01:07:40;;;;;;;;;6.25;6.25;;;;;22.26;42.63;100970.53;5017687;28;46506;-78
2022/07/30 01:10:07;;;;;;;;;8.00;8.00;;;;;22.26;42.25;100971.38;5016096;28;45319;-77
2022/07/30 01:12:33;;;;;;;;;8.50;8.50;;;;;22.27;42.74;100964.19;5017526;28;45357;-77
2022/07/30 01:15:01;;;;;;;;;9.25;9.25;;;;;22.25;42.38;100968.84;5017777;28;45397;-77
2022/07/30 01:17:27;;;;;;;;;8.25;8.25;;;;;22.27;42.38;100961.50;5017026;28;45579;-76
2022/07/30 01:19:57;;;;;;;;;10.00;10.00;;;;;22.26;42.58;100959.81;5017366;28;45337;-77
2022/07/30 01:22:27;;;;;;;;;10.00;10.00;;;;;22.23;42.87;100965.44;5018139;28;45197;-72
2022/07/30 01:25:08;;;;;;;;;8.50;8.50;;;;;22.19;42.96;100959.47;5017205;28;45477;-74
2022/07/30 01:27:39;;;;;;;;;9.50;9.50;;;;;22.14;43.26;100954.50;5017006;28;47905;-72
2022/07/30 01:30:05;;;;;;;;;8.75;8.75;;;;;22.10;43.12;100955.75;5016936;28;45477;-73
2022/07/30 01:32:34;;;;;;;;;8.25;8.25;;;;;22.11;43.10;100957.44;5017192;28;45390;-73
2022/07/30 01:35:02;;;;;;;;;8.00;8.00;;;;;22.13;43.13;100957.31;5017294;28;45214;-73
2022/07/30 01:37:30;;;;;;;;;10.00;10.00;;;;;22.12;43.15;100956.47;5016792;28;46734;-72
2022/07/30 01:39:57;;;;;;;;;10.00;10.00;;;;;22.10;43.50;100955.75;5017911;28;45498;-71
2022/07/30 01:42:25;;;;;;;;;8.00;8.00;;;;;21.95;43.17;100940.97;5016337;28;45390;-72
2022/07/30 01:44:52;;;;;;;;;8.50;8.50;;;;;22.09;43.64;100964.75;5017298;28;45250;-71
2022/07/30 01:47:19;;;;;;;;;8.50;8.50;;;;;22.12;43.57;100958.28;5016929;28;45297;-73
2022/07/30 01:49:47;;;;;;;;;8.00;8.00;;;;;22.10;43.63;100965.59;5015504;28;45541;-71
2022/07/30 01:52:15;;;;;;;;;7.00;7.00;;;;;22.08;43.75;100972.91;5018136;28;45340;-72
2022/07/30 01:54:47;;;;;;;;;7.50;7.50;;;;;21.99;44.07;100964.66;5021831;28;45479;-71
2022/07/30 01:57:15;;;;;;;;;6.50;6.50;;;;;21.99;43.87;100967.34;5018483;28;45343;-74
2022/07/30 01:59:44;;;;;;;;;8.00;8.00;;;;;22.00;43.89;100974.41;5017427;28;45333;-73
2022/07/30 02:02:10;;;;;;;;;6.00;6.00;;;;;21.98;44.12;100972.84;5018031;28;45371;-76
2022/07/30 02:04:35;;;;;;;;;9.00;9.00;;;;;21.96;44.00;100970.28;5020502;28;45466;-78
2022/07/30 02:07:13;;;;;;;;;7.25;7.25;;;;;21.89;44.25;100969.06;5024209;28;45422;-78
2022/07/30 02:10:02;;;;;;;;;6.50;6.50;;;;;21.84;44.46;100965.94;5019551;28;45291;-76
2022/07/30 02:12:31;;;;;;;;;6.25;6.25;;;;;21.77;44.65;100964.72;5016484;28;45317;-75
2022/07/30 02:15:08;;;;;;;;;7.00;7.00;;;;;21.69;44.59;100968.88;5016638;28;45280;-77
2022/07/30 02:17:48;;;;;;;;;6.75;6.75;;;;;21.62;44.67;100951.59;5016135;28;46113;-73
2022/07/30 02:20:15;;;;;;;;;7.25;7.25;;;;;21.60;45.04;100970.44;5016449;28;45441;-74
2022/07/30 02:22:45;;;;;;;;;8.00;8.00;;;;;21.55;45.45;100958.41;5016382;28;45518;-72
2022/07/30 02:25:16;;;;;;;;;6.00;6.00;;;;;21.49;45.16;100956.25;5016457;28;45171;-77
2022/07/30 02:27:47;;;;;;;;;6.75;6.75;;;;;21.34;45.32;100943.13;5016392;28;45339;-79
2022/07/30 02:30:14;;;;;;;;;8.50;8.00;;;;;21.42;45.47;100961.22;5016501;28;45353;-77
2022/07/30 02:32:42;;;;;;;;;6.75;6.75;;;;;21.41;45.48;100960.38;5018353;28;45450;-79
2022/07/30 02:35:17;;;;;;;;;8.00;8.00;;;;;21.36;45.39;100954.56;5026462;28;45376;-77
2022/07/30 02:37:45;;;;;;;;;6.50;6.50;;;;;21.28;45.73;100954.31;5022976;28;46683;-77
2022/07/30 02:40:16;;;;;;;;;7.25;7.25;;;;;21.28;45.65;100954.31;5025800;28;44818;-72
2022/07/30 02:42:45;;;;;;;;;5.50;5.50;;;;;21.25;46.09;100947.38;5021250;28;45389;-72
2022/07/30 02:45:11;;;;;;;;;6.75;6.75;;;;;21.23;46.20;100953.84;5016662;28;45414;-73
2022/07/30 02:47:38;;;;;;;;;9.00;9.00;;;;;21.14;46.05;100945.53;5015551;28;46381;-71
2022/07/30 02:50:06;;;;;;;;;7.00;7.00;;;;;21.14;46.23;100948.22;5015908;28;45181;-72
2022/07/30 02:52:34;;;;;;;;;7.75;7.75;;;;;21.09;46.21;100950.41;5015876;28;45442;-77
2022/07/30 02:55:01;;;;;;;;;7.25;7.25;;;;;21.05;46.11;100940.94;5015936;28;45352;-76
2022/07/30 02:57:28;;;;;;;;;7.00;7.00;;;;;21.04;46.26;100952.59;5015512;28;46141;-76
2022/07/30 02:59:56;;;;;;;;;7.50;7.50;;;;;21.00;46.65;100943.97;5016167;28;45418;-74
2022/07/30 03:02:22;;;;;;;;;5.75;5.75;;;;;20.99;46.68;100954.78;5016065;28;45461;-76
2022/07/30 03:04:49;;;;;;;;;7.00;7.00;;;;;20.95;46.77;100947.97;5016012;28;45254;-77
2022/07/30 03:07:14;;;;;;;;;8.00;8.00;;;;;20.94;46.65;100959.63;5015314;28;45333;-76
2022/07/30 03:09:42;;;;;;;;;6.75;6.75;;;;;20.90;47.00;100955.50;5013971;28;45328;-75
2022/07/30 03:12:11;;;;;;;;;7.00;7.00;;;;;20.87;46.73;100956.63;5016334;28;45334;-77
2022/07/30 03:14:37;;;;;;;;;8.25;8.25;;;;;20.78;47.33;100946.59;5015936;28;45278;-77
2022/07/30 03:17:06;;;;;;;;;7.50;7.50;;;;;20.77;46.90;100956.44;5015163;28;45485;-78
2022/07/30 03:19:34;;;;;;;;;6.25;6.25;;;;;20.77;47.07;100951.09;5015039;28;45202;-76
2022/07/30 03:22:02;;;;;;;;;8.50;8.50;;;;;20.73;46.87;100947.81;5015451;28;45376;-75
2022/07/30 03:24:29;;;;;;;;;7.00;7.00;;;;;20.73;47.22;100957.66;5015675;28;45286;-77
2022/07/30 03:26:56;;;;;;;;;8.00;8.00;;;;;20.69;47.46;100946.34;5013296;28;47433;-74
2022/07/30 03:29:23;;;;;;;;;6.75;6.75;;;;;20.68;47.54;100949.13;5015553;28;45251;-77
2022/07/30 03:31:49;;;;;;;;;6.75;6.75;;;;;20.67;47.09;100952.78;5015011;28;45538;-73
2022/07/30 03:34:16;;;;;;;;;8.25;8.25;;;;;20.65;47.46;100944.84;5015468;28;45549;-74
2022/07/30 03:36:42;;;;;;;;;7.50;7.50;;;;;20.62;47.65;100952.28;5013722;28;46398;-77
2022/07/30 03:39:08;;;;;;;;;9.00;9.00;;;;;20.62;47.54;100944.25;5015128;28;45471;-75
2022/07/30 03:41:35;;;;;;;;;7.25;7.25;;;;;20.57;47.28;100941.94;5015418;28;45569;-75
2022/07/30 03:44:01;;;;;;;;;9.25;9.25;;;;;20.59;47.75;100950.69;5015489;28;45179;-75
2022/07/30 03:46:27;;;;;;;;;9.00;9.00;;;;;20.52;47.79;100942.31;5015511;28;46446;-74
2022/07/30 03:48:53;;;;;;;;;11.00;11.00;;;;;20.51;47.96;100947.75;5013908;28;45243;-72
2022/07/30 03:51:19;;;;;;;;;9.00;9.00;;;;;20.48;48.26;100953.31;5015193;28;45235;-72
2022/07/30 03:53:45;;;;;;;;;10.75;10.75;;;;;20.48;47.85;100958.66;5013895;28;45716;-70
2022/07/30 03:56:13;;;;;;;;;11.00;11.00;;;;;20.47;48.54;100964.97;5014741;28;46106;-69
2022/07/30 03:58:38;;;;;;;;;7.75;7.75;;;;;20.43;48.48;100967.06;5014749;28;45471;-73
2022/07/30 04:01:04;;;;;;;;;8.25;8.25;;;;;20.40;48.62;100967.28;5015223;28;45467;-77
2022/07/30 04:03:33;;;;;;;;;9.50;9.50;;;;;20.38;48.67;100974.56;5015146;28;45324;-73
2022/07/30 04:05:59;;;;;;;;;9.00;9.00;;;;;20.37;48.60;100971.03;5014608;28;45297;-70
2022/07/30 04:08:24;;;;;;;;;9.50;9.50;;;;;20.36;48.67;100963.13;5014941;28;45394;-71
2022/07/30 04:10:50;;;;;;;;;9.50;9.50;;;;;20.35;48.25;100958.78;5014679;28;45344;-72
2022/07/30 04:13:16;;;;;;;;;9.00;9.00;;;;;20.35;48.65;100959.59;5014807;28;45403;-73
2022/07/30 04:15:57;;;;;;;;;7.50;7.50;;;;;20.32;48.51;100957.16;5014458;28;46709;-74
2022/07/30 04:18:26;;;;;;;;;11.25;11.25;;;;;20.29;48.30;100954.72;5014147;28;45395;-71
2022/07/30 04:20:53;;;;;;;;;12.50;12.50;;;;;20.32;48.48;100957.16;5014513;28;45393;-72
2022/07/30 04:23:19;;;;;;;;;8.50;8.50;;;;;20.33;48.77;100961.53;5015192;28;45470;-73
2022/07/30 04:25:45;;;;;;;;;7.00;7.00;;;;;20.33;48.48;100969.56;5014521;28;46153;-73
2022/07/30 04:28:12;;;;;;;;;9.00;9.00;;;;;20.31;48.77;100971.50;5014549;28;45430;-73
2022/07/30 04:30:38;;;;;;;;;10.00;10.00;;;;;20.30;48.83;100975.13;5014696;28;45268;-76
2022/07/30 04:33:04;;;;;;;;;8.00;8.00;;;;;20.29;48.54;100978.78;5015519;28;45491;-73
2022/07/30 04:35:31;;;;;;;;;10.00;10.00;;;;;20.25;48.92;100978.16;5018229;28;46608;-72
2022/07/30 04:37:57;;;;;;;;;11.00;11.00;;;;;20.26;48.67;100976.31;5018683;28;45347;-72
2022/07/30 04:40:22;;;;;;;;;11.00;11.00;;;;;20.27;48.51;100980.69;5022387;28;45345;-71
2022/07/30 04:42:48;;;;;;;;;12.25;12.25;;;;;20.23;48.53;100977.44;5019092;28;45413;-71
2022/07/30 04:45:13;;;;;;;;;9.75;9.75;;;;;20.27;48.96;100980.69;5017877;28;46422;-71
2022/07/30 04:47:39;;;;;;;;;12.25;12.25;;;;;20.25;48.63;100966.59;5017691;28;45307;-72
2022/07/30 04:50:05;;;;;;;;;9.50;9.50;;;;;20.23;48.72;100969.41;5017842;28;45200;-75
2022/07/30 04:52:31;;;;;;;;;13.50;12.75;;;;;20.27;48.88;100970.00;5017947;28;45462;-75
2022/07/30 04:55:01;;;;;;;;;11.25;11.25;;;;;20.32;48.82;100972.34;5016174;28;47417;-74
2022/07/30 04:57:27;;;;;;;;;9.50;9.50;;;;;20.33;48.56;100982.91;5016757;28;46321;-74
2022/07/30 04:59:52;;;;;;;;;6.50;6.50;;;;;20.35;48.46;100974.78;5017528;28;45366;-75
2022/07/30 05:02:21;;;;;;;;;8.00;8.00;;;;;20.31;48.75;100981.34;5018442;28;45304;-76
2022/07/30 05:04:49;;;;;;;;;7.00;7.00;;;;;20.28;48.84;100983.28;5018832;28;45864;-76
2022/07/30 05:07:16;;;;;;;;;3.75;3.75;;;;;20.22;49.16;100974.84;5025507;28;45379;-73
2022/07/30 05:09:42;;;;;;;;;9.00;9.00;;;;;20.26;48.83;100985.22;5026555;28;45250;-76
2022/07/30 05:12:08;;;;;;;;;7.75;7.75;;;;;20.20;48.60;100977.66;5019623;28;45383;-76
2022/07/30 05:14:33;;;;;;;;;11.00;9.75;;;;;20.21;48.47;100978.50;5017760;28;45624;-77
2022/07/30 05:16:58;;;;;;;;;9.00;9.00;;;;;20.27;48.67;100989.59;5017532;28;45519;-77
2022/07/30 05:19:24;;;;;;;;;7.50;7.50;;;;;20.37;48.42;100980.88;5017991;28;45261;-78
2022/07/30 05:21:49;;;;;;;;;9.50;9.50;;;;;20.55;48.20;100994.63;5017826;28;45234;-73
2022/07/30 05:24:15;;;;;;;;;8.50;8.50;;;;;20.77;47.81;100991.19;5017155;28;46324;-74
2022/07/30 05:26:41;;;;;;;;;7.00;7.00;;;;;20.97;47.46;100996.84;5017207;28;45172;-75
2022/07/30 05:29:06;;;;;;;;;6.50;6.50;;;;;21.13;47.15;100993.81;5017472;28;45261;-76
2022/07/30 05:31:31;;;;;;;;;7.00;7.00;;;;;21.25;46.68;100992.84;5017918;28;45676;-73
2022/07/30 05:33:57;;;;;;;;;7.00;7.00;;;;;21.38;46.85;100999.91;5017438;28;45485;-72
2022/07/30 05:36:22;;;;;;;;;8.00;8.00;;;;;21.45;46.43;100996.63;5017005;28;45412;-71
2022/07/30 05:38:48;;;;;;;;;8.00;8.00;;;;;21.57;46.71;101001.97;5017152;28;45406;-74
2022/07/30 05:41:13;;;;;;;;;6.25;6.25;;;;;21.74;46.12;101003.34;5015764;28;45242;-76
2022/07/30 05:43:39;;;;;;;;;5.75;5.75;;;;;21.80;45.55;101000.16;5016713;28;45463;-76
2022/07/30 05:46:04;;;;;;;;;6.00;6.00;;;;;21.83;45.63;101004.38;5015407;28;45696;-73
2022/07/30 05:48:33;;;;;;;;;5.00;5.00;;;;;21.81;45.38;101009.03;5016924;28;45348;-74
2022/07/30 05:50:59;;;;;;;;;6.50;6.50;;;;;21.78;45.37;101015.50;5016803;28;45398;-75
2022/07/30 05:53:24;;;;;;;;;6.00;6.00;;;;;21.72;45.51;101008.78;5016224;28;46466;-75
2022/07/30 05:55:50;;;;;;;;;7.00;7.00;;;;;21.65;45.73;101007.59;5016503;28;45267;-72
2022/07/30 05:58:15;;;;;;;;;7.75;7.75;;;;;21.62;45.71;101006.94;5016497;28;45198;-74
2022/07/30 06:00:40;;;;;;;;;7.75;7.75;;;;;21.58;45.98;101019.75;5016825;28;45387;-74
2022/07/30 06:03:06;;;;;;;;;6.75;6.75;;;;;21.60;45.85;101015.09;5016501;28;46620;-75
2022/07/30 06:05:31;;;;;;;;;6.00;6.00;;;;;21.58;45.93;101011.72;5016989;28;45336;-74
2022/07/30 06:07:57;;;;;;;;;6.00;6.00;;;;;21.58;45.90;101009.03;5016684;28;45301;-77
2022/07/30 06:10:22;;;;;;;;;6.50;6.50;;;;;21.59;45.55;101016.09;5016855;28;45483;-78
2022/07/30 06:12:48;;;;;;;;;7.75;7.75;;;;;21.58;45.77;101009.88;5016349;28;45492;-73
2022/07/30 06:15:14;;;;;;;;;10.25;10.25;;;;;21.59;45.50;101005.38;5016235;28;45377;-76
2022/07/30 06:17:46;;;;;;;;;6.50;6.25;;;;;21.62;45.50;101007.81;5016460;28;45596;-77
2022/07/30 06:20:14;;;;;;;;;10.25;10.25;;;;;21.60;45.83;101001.72;5016595;28;45229;-74
2022/07/30 06:22:39;;;;;;;;;8.25;8.25;;;;;21.58;45.85;101009.88;5016326;28;46545;-75
2022/07/30 06:25:06;;;;;;;;;8.00;8.00;;;;;21.59;45.78;101013.41;5016632;28;45378;-70
2022/07/30 06:27:32;;;;;;;;;6.25;6.25;;;;;21.57;46.14;101023.38;5017008;28;45298;-77
2022/07/30 06:30:08;;;;;;;;;6.25;6.25;;;;;21.54;46.05;101021.78;5019393;28;45262;-73
2022/07/30 06:32:34;;;;;;;;;8.00;8.00;;;;;21.52;46.06;101031.75;5032076;28;46766;-76
2022/07/30 06:34:59;;;;;;;;;8.50;8.50;;;;;21.54;45.59;101031.66;5034942;28;45263;-76
2022/07/30 06:37:25;;;;;;;;;7.75;7.75;;;;;21.61;45.96;101024.84;5033954;28;45452;-73
2022/07/30 06:39:50;;;;;;;;;8.25;8.25;;;;;21.75;45.75;101029.13;5022212;28;45411;-75
2022/07/30 06:42:16;;;;;;;;;8.25;8.25;;;;;21.84;45.57;101032.88;5016363;28;45332;-73
2022/07/30 06:44:41;;;;;;;;;8.00;8.00;;;;;21.88;45.39;101034.31;5018091;28;45224;-73
2022/07/30 06:47:07;;;;;;;;;9.75;9.75;;;;;21.97;45.64;101043.44;5016108;28;45699;-74
2022/07/30 06:49:34;;;;;;;;;9.00;9.00;;;;;22.08;45.48;101042.56;5015087;28;45483;-70
2022/07/30 06:52:00;;;;;;;;;8.00;8.00;;;;;22.09;44.94;101041.56;5015676;28;45486;-73
2022/07/30 06:54:25;;;;;;;;;7.25;7.25;;;;;22.13;45.17;101035.00;5015549;28;45349;-74
2022/07/30 06:56:50;;;;;;;;;7.00;7.00;;;;;22.25;45.05;101039.34;5015884;28;45416;-75
2022/07/30 06:59:16;;;;;;;;;8.25;8.25;;;;;22.30;44.95;101042.50;5015945;28;45241;-72
2022/07/30 07:01:41;;;;;;;;;7.25;7.25;;;;;22.30;45.04;101041.66;5014550;28;45526;-71
2022/07/30 07:04:07;;;;;;;;;8.00;8.00;;;;;22.40;44.64;101047.09;5014570;28;45320;-71
2022/07/30 07:06:32;;;;;;;;;8.75;7.50;;;;;22.47;44.68;101057.22;5017450;28;45444;-76
2022/07/30 07:08:58;;;;;;;;;11.00;11.00;;;;;22.57;44.65;101065.34;5018225;28;45195;-77
2022/07/30 07:11:24;;;;;;;;;8.75;8.75;;;;;22.68;44.62;101060.91;5018390;28;46465;-75
2022/07/30 07:13:49;;;;;;;;;8.00;8.00;;;;;22.77;44.26;101062.81;5016884;28;45237;-73
2022/07/30 07:16:15;;;;;;;;;7.25;7.25;;;;;22.91;44.13;101067.84;5015680;28;45326;-77
2022/07/30 07:18:40;;;;;;;;;8.50;8.50;;;;;23.01;43.98;101067.06;5030746;28;45269;-75
2022/07/30 07:21:07;;;;;;;;;7.25;7.25;;;;;23.06;43.67;101070.19;5015608;28;46614;-76
2022/07/30 07:23:32;;;;;;;;;8.75;8.75;;;;;23.07;43.85;101066.53;5015450;28;45310;-75
2022/07/30 07:25:58;;;;;;;;;7.75;7.75;;;;;23.09;43.26;101071.78;5013915;28;45313;-76
2022/07/30 07:28:23;;;;;;;;;7.75;7.75;;;;;23.11;42.97;101070.66;5015622;28;45519;-74
2022/07/30 07:30:49;;;;;;;;;8.00;8.00;;;;;23.12;43.04;101064.31;5015071;28;46451;-73
2022/07/30 07:33:14;;;;;;;;;8.75;8.75;;;;;23.16;43.08;101068.41;5015246;28;45270;-77
2022/07/30 07:35:39;;;;;;;;;8.00;8.00;;;;;23.28;43.24;101071.91;5015202;28;45462;-76
2022/07/30 07:38:05;;;;;;;;;8.75;8.75;;;;;23.37;42.99;101072.97;5015265;28;45614;-77
2022/07/30 07:40:30;;;;;;;;;8.00;8.00;;;;;23.46;42.50;101074.84;5015104;28;46113;-75
2022/07/30 07:42:55;;;;;;;;;7.50;7.50;;;;;23.59;42.33;101065.72;5015041;28;45379;-75
2022/07/30 07:45:21;;;;;;;;;10.25;9.75;;;;;23.72;42.04;101066.31;5015260;28;45618;-77
2022/07/30 07:47:48;;;;;;;;;7.25;7.25;;;;;23.85;42.63;101066.06;5015260;28;45272;-77
2022/07/30 07:50:14;;;;;;;;;8.00;8.00;;;;;24.01;42.41;101065.59;5014893;28;45906;-78
2022/07/30 07:52:40;;;;;;;;;11.75;11.75;;;;;24.18;41.45;101061.38;5014577;28;45266;-75
2022/07/30 07:55:06;;;;;;;;;10.25;10.25;;;;;24.31;40.89;101068.31;5015166;28;45336;-79
2022/07/30 07:57:37;;;;;;;;;8.25;8.25;;;;;24.36;41.26;101060.69;5015257;28;45474;-76
2022/07/30 08:00:04;;;;;;;;;9.25;9.25;;;;;24.49;41.37;101060.41;5013362;28;48297;-76
2022/07/30 08:02:30;;;;;;;;;10.00;9.25;;;;;24.64;41.07;101061.69;5014782;28;45444;-75
2022/07/30 08:04:55;;;;;;;;;11.00;11.00;;;;;24.84;41.20;101060.84;5014640;28;45237;-74
2022/07/30 08:07:20;;;;;;;;;8.00;8.00;;;;;25.02;40.05;101058.25;5013361;28;45551;-73
2022/07/30 08:09:46;;;;;;;;;10.00;10.00;;;;;25.12;40.54;101059.09;5014448;28;46417;-72
2022/07/30 08:12:11;;;;;;;;;9.25;9.25;;;;;25.26;39.71;101056.91;5014443;28;45270;-78
2022/07/30 08:14:37;;;;;;;;;7.75;7.75;;;;;25.34;39.35;101065.09;5018837;28;45282;-75
2022/07/30 08:17:03;;;;;;;;;7.50;7.50;;;;;25.41;39.21;101050.06;5018440;28;45579;-75
2022/07/30 08:19:28;;;;;;;;;7.25;7.25;;;;;25.56;38.74;101057.72;5019969;28;46034;-77
2022/07/30 08:21:53;;;;;;;;;10.50;10.50;;;;;25.78;38.36;101048.38;5018392;28;45410;-76
2022/07/30 08:24:19;;;;;;;;;8.00;8.00;;;;;26.04;37.96;101056.59;5018889;28;45297;-76
2022/07/30 08:26:44;;;;;;;;;8.50;8.50;;;;;26.19;37.76;101054.25;5019089;28;45534;-75
2022/07/30 08:29:09;;;;;;;;;7.50;7.50;;;;;26.38;37.68;101066.72;5029053;28;47048;-73
2022/07/30 08:31:35;;;;;;;;;7.50;7.50;;;;;26.51;37.29;101066.34;5031730;28;45363;-76
2022/07/30 08:34:00;;;;;;;;;7.25;7.25;;;;;26.55;36.82;101066.91;5028157;28;45237;-75
2022/07/30 08:36:25;;;;;;;;;6.00;6.00;;;;;26.49;36.39;101071.06;5023663;28;45316;-78
2022/07/30 08:38:51;;;;;;;;;6.00;6.00;;;;;26.39;36.95;101078.38;5018625;28;45390;-75
2022/07/30 08:41:19;;;;;;;;;7.50;7.50;;;;;26.31;36.28;101075.59;5018474;28;45366;-78
2022/07/30 08:43:46;;;;;;;;;6.50;6.50;;;;;26.20;36.85;101077.53;5018432;28;45410;-77
2022/07/30 08:46:14;;;;;;;;;7.25;7.25;;;;;26.21;36.74;101075.66;5018625;28;45931;-74
2022/07/30 08:48:41;;;;;;;;;6.50;6.25;;;;;26.22;36.79;101071.97;5018107;28;45442;-76
2022/07/30 08:51:07;;;;;;;;;9.25;9.25;;;;;26.26;36.54;101067.97;5017263;28;45395;-73
2022/07/30 08:53:34;;;;;;;;;8.00;8.00;;;;;26.24;36.58;101078.03;5016506;28;45458;-76
2022/07/30 08:56:00;;;;;;;;;9.00;9.00;;;;;26.10;36.84;101064.06;5050117;28;45571;-72
2022/07/30 08:58:30;;;;;;;;;7.25;7.25;;;;;26.13;36.99;101078.25;5017390;28;45640;-73
2022/07/30 09:00:56;;;;;;;;;8.00;8.00;;;;;26.13;36.35;101070.16;5017434;28;45390;-73
2022/07/30 09:03:22;;;;;;;;;7.25;7.25;;;;;26.02;36.29;101050.50;5017550;28;45776;-75
2022/07/30 09:05:47;;;;;;;;;7.00;7.00;;;;;26.11;36.05;101070.31;5017509;28;45388;-78
2022/07/30 09:08:14;;;;;;;;;7.50;7.50;;;;;26.20;36.06;101073.97;5017729;28;45389;-75
2022/07/30 09:10:41;;;;;;;;;7.50;7.50;;;;;26.26;36.04;101070.66;5019067;28;45313;-72
2022/07/30 09:13:51;;;;;;;;;6.50;6.50;;;;;26.43;35.72;101081.59;5017526;28;45288;-76
2022/07/30 09:16:24;;;;;;;;;7.00;7.00;;;;;26.60;34.95;101075.38;5027722;28;45638;-77
2022/07/30 09:18:50;;;;;;;;;7.25;7.25;;;;;26.86;34.62;101079.13;5017196;28;46585;-76
2022/07/30 09:21:20;;;;;;;;;6.25;6.25;;;;;27.07;34.29;101074.25;5016975;28;45415;-75
2022/07/30 09:24:06;;;;;;;;;5.75;5.75;;;;;27.22;33.84;101079.91;5015987;28;45284;-72
2022/07/30 09:26:52;;;;;;;;;6.75;6.75;;;;;27.18;33.88;101075.00;5017163;28;45209;-76
2022/07/30 09:29:22;;;;;;;;;7.25;7.25;;;;;27.16;33.98;101077.00;5017399;28;45244;-74
2022/07/30 09:32:03;;;;;;;;;7.00;7.00;;;;;27.07;33.85;101076.94;5017643;28;45446;-75
2022/07/30 09:34:31;;;;;;;;;6.00;6.00;;;;;26.95;33.94;101087.16;5017547;28;45179;-76
2022/07/30 09:36:59;;;;;;;;;7.00;7.00;;;;;26.83;33.98;101091.09;5015874;28;45422;-72
2022/07/30 09:39:35;;;;;;;;;7.50;7.50;;;;;26.81;34.29;101093.91;5015488;28;46422;-74
2022/07/30 09:42:03;;;;;;;;;6.00;6.00;;;;;26.86;34.44;101088.09;5016976;28;45333;-77
2022/07/30 09:44:30;;;;;;;;;8.50;8.50;;;;;26.91;34.09;101087.59;5017076;28;45302;-74
2022/07/30 09:46:56;;;;;;;;;9.00;8.25;;;;;27.00;34.05;101096.63;5017342;28;45399;-75
2022/07/30 09:49:26;;;;;;;;;4.25;4.25;;;;;27.05;33.37;101081.66;5016828;28;46674;-76
2022/07/30 09:51:56;;;;;;;;;7.50;7.50;;;;;27.19;33.21;101090.19;5016736;28;45348;-72
2022/07/30 09:54:21;;;;;;;;;7.00;7.00;;;;;27.32;32.87;101092.44;5016919;28;45566;-73
2022/07/30 09:56:47;;;;;;;;;4.75;4.75;;;;;27.40;32.58;101098.75;5016579;28;45507;-74
2022/07/30 09:59:26;;;;;;;;;4.25;4.25;;;;;27.44;32.35;101093.84;5016420;28;46208;-73
2022/07/30 10:01:53;;;;;;;;;5.50;5.50;;;;;27.55;32.30;101093.59;5016483;28;45281;-70
2022/07/30 10:04:37;;;;;;;;;6.50;6.50;;;;;27.71;32.23;101089.31;5014290;28;45569;-69
2022/07/30 10:07:02;;;;;;;;;4.50;4.50;;;;;27.74;31.51;101094.41;5016308;28;45476;-68
2022/07/30 10:09:33;;;;;;;;;5.75;5.75;;;;;27.77;31.84;101093.22;5013383;28;46374;-70
2022/07/30 10:12:04;;;;;;;;;6.00;6.00;;;;;27.94;31.90;101084.16;5014829;28;45439;-69
2022/07/30 10:14:32;;;;;;;;;6.00;6.00;;;;;28.08;31.70;101092.63;5015921;28;45453;-68
2022/07/30 10:16:59;;;;;;;;;4.25;4.25;;;;;28.28;31.84;101088.69;5013765;28;45439;-68
2022/07/30 10:19:25;;;;;;;;;5.25;5.25;;;;;28.39;31.42;101090.19;5015044;28;46530;-68
2022/07/30 10:21:52;;;;;;;;;4.75;4.75;;;;;28.51;31.17;101079.03;5015699;28;45364;-67
2022/07/30 10:24:18;;;;;;;;;5.75;5.75;;;;;28.63;31.52;101087.69;5014228;28;45280;-63
2022/07/30 10:26:46;;;;;;;;;6.00;6.00;;;;;28.69;31.68;101082.47;5016646;28;45461;-71
2022/07/30 10:29:11;;;;;;;;;16.25;16.25;;;;;28.85;31.54;101080.78;5014119;28;46846;-66
2022/07/30 10:31:37;;;;;;;;;4.25;4.25;;;;;29.02;31.47;101081.59;5017279;28;45394;-70
2022/07/30 10:34:03;;;;;;;;;6.00;6.00;;;;;29.12;31.25;101076.84;5019509;28;45465;-74
2022/07/30 10:38:03;;;;;;;;;5.00;5.00;;;;;29.22;30.92;101065.00;5112108;27;45413;-78
2022/07/30 10:40:39;;;;;;;;;6.00;6.00;;;;;29.34;30.62;101066.31;5096883;27;45413;-78
2022/07/30 10:43:31;;;;;;;;;9.00;9.00;;;;;29.40;30.59;101056.66;5102491;27;45429;-80
2022/07/30 10:46:15;;;;;;;;;5.75;5.75;;;;;29.44;29.99;101066.13;5094964;27;45445;-79
2022/07/30 10:48:40;;;;;;;;;6.50;6.25;;;;;29.46;30.21;101055.13;5094045;27;45697;-82
2022/07/30 10:51:06;;;;;;;;;4.00;4.00;;;;;29.51;29.94;101060.88;5095013;27;45537;-75
2022/07/30 10:53:44;;;;;;;;;7.00;5.50;;;;;29.50;30.34;101062.72;5096027;27;45407;-76
2022/07/30 10:56:12;;;;;;;;;7.75;7.25;;;;;29.56;29.96;101062.00;5080847;28;45272;-75
2022/07/30 10:59:03;;;;;;;;;6.75;5.00;;;;;29.49;30.51;101062.91;5073377;28;46229;-75
2022/07/30 11:01:46;;;;;;;;;8.25;6.50;;;;;29.42;30.08;101060.91;5088889;27;45402;-76
2022/07/30 11:04:22;;;;;;;;;5.25;5.25;;;;;29.39;29.88;101061.25;5081689;27;45442;-77
2022/07/30 11:06:49;;;;;;;;;6.00;6.00;;;;;29.35;29.90;101051.75;5082720;28;45421;-69
2022/07/30 11:09:41;;;;;;;;;6.75;6.75;;;;;29.41;30.62;101052.94;5100401;27;45458;-77
2022/07/30 11:12:08;;;;;;;;;6.00;6.00;;;;;29.47;29.96;101051.41;5097164;27;45360;-75
2022/07/30 11:14:45;;;;;;;;;5.00;5.00;;;;;29.49;30.16;101047.47;5097050;27;45280;-77
2022/07/30 11:17:16;;;;;;;;;6.25;6.25;;;;;29.48;30.48;101045.78;5094057;27;45183;-74
2022/07/30 11:20:06;;;;;;;;;6.50;6.50;;;;;29.50;30.20;101051.03;5089356;27;45576;-79
2022/07/30 11:22:40;;;;;;;;;6.75;6.00;;;;;29.46;30.22;101044.28;5083275;27;45397;-74
2022/07/30 11:25:07;;;;;;;;;4.00;4.00;;;;;29.38;30.41;101047.81;5094026;27;45815;-76
2022/07/30 11:27:52;;;;;;;;;5.00;5.00;;;;;29.30;30.22;101043.28;5093435;27;45536;-75
2022/07/30 11:30:20;;;;;;;;;5.00;5.00;;;;;29.27;30.47;101049.88;5094644;27;46041;-78